Time;durP1;ratioP1;P1;durP2;ratioP2;P2;SDS_P1;SDS_P2;PMS_P1;PMS_P2;Temp;Humidity;BMP_temperature;BMP_pressure;BME280_temperature;BME280_humidity;BME280_pressure;Samples;Min_cycle;Max_cycle;Signal;HPM_P1;HPM_P2
2022/06/01 00:00:05;;;;;;;3.90;2.83;;;10.70;83.50;;;;;;5005111;28;20534;-50
2022/06/01 00:02:31;;;;;;;10.77;3.37;;;10.60;83.60;;;;;;5004728;28;20489;-49
2022/06/01 00:04:58;;;;;;;3.50;3.20;;;10.60;83.10;;;;;;5012652;28;20499;-50
2022/06/01 00:07:26;;;;;;;3.27;2.97;;;10.70;83.20;;;;;;5007157;28;21157;-49
2022/06/01 00:09:54;;;;;;;11.93;3.10;;;10.60;83.30;;;;;;5003815;28;20582;-50
2022/06/01 00:12:21;;;;;;;3.70;3.40;;;10.60;83.30;;;;;;5009118;28;20489;-50
2022/06/01 00:14:48;;;;;;;3.43;3.13;;;10.60;83.20;;;;;;5002201;28;20886;-50
2022/06/01 00:17:15;;;;;;;11.83;4.37;;;10.50;83.00;;;;;;5001912;28;20493;-49
2022/06/01 00:19:42;;;;;;;6.73;3.30;;;10.50;83.10;;;;;;4987465;28;20481;-49
2022/06/01 00:22:16;;;;;;;4.10;3.40;;;10.40;83.00;;;;;;5002257;28;20788;-49
2022/06/01 00:24:46;;;;;;;2.87;2.67;;;10.40;83.30;;;;;;4990327;28;20480;-49
2022/06/01 00:27:14;;;;;;;4.00;3.60;;;10.40;82.90;;;;;;4997971;28;20485;-49
2022/06/01 00:29:42;;;;;;;3.60;3.30;;;10.30;82.90;;;;;;4984741;28;20483;-49
2022/06/01 00:32:11;;;;;;;4.60;4.20;;;10.40;82.80;;;;;;4984473;28;20614;-51
2022/06/01 00:34:38;;;;;;;3.33;3.03;;;10.20;83.00;;;;;;4988206;28;20630;-50
2022/06/01 00:37:05;;;;;;;10.20;3.90;;;10.20;83.00;;;;;;4977595;28;20491;-54
2022/06/01 00:39:32;;;;;;;3.47;3.17;;;10.10;83.00;;;;;;5001241;28;20485;-49
2022/06/01 00:42:15;;;;;;;7.63;4.40;;;10.10;83.10;;;;;;4989011;28;20486;-49
2022/06/01 00:44:42;;;;;;;4.70;3.67;;;10.10;83.10;;;;;;4986099;28;20464;-49
2022/06/01 00:47:10;;;;;;;3.90;3.60;;;10.20;83.30;;;;;;4994298;28;20489;-49
2022/06/01 00:49:39;;;;;;;18.73;4.17;;;10.30;84.30;;;;;;4986785;28;20568;-49
2022/06/01 00:52:07;;;;;;;3.20;2.90;;;10.30;83.50;;;;;;4987150;28;20493;-49
2022/06/01 00:54:33;;;;;;;3.10;2.50;;;10.40;83.30;;;;;;4987938;28;20491;-49
2022/06/01 00:57:08;;;;;;;3.63;2.80;;;10.40;83.20;;;;;;4991122;28;20489;-49
2022/06/01 00:59:40;;;;;;;3.90;2.80;;;10.30;83.20;;;;;;5001971;28;21075;-49
2022/06/01 01:02:09;;;;;;;3.00;2.70;;;10.30;83.70;;;;;;5007254;28;20486;-49
2022/06/01 01:04:38;;;;;;;3.07;2.73;;;10.30;83.70;;;;;;5008853;28;20999;-49
2022/06/01 01:07:09;;;;;;;4.47;2.43;;;10.30;83.90;;;;;;5009536;28;20787;-49
2022/06/01 01:09:36;;;;;;;2.50;2.30;;;10.30;85.40;;;;;;5008803;28;20538;-49
2022/06/01 01:12:06;;;;;;;2.40;2.20;;;10.40;85.90;;;;;;5005938;28;20489;-49
2022/06/01 01:14:38;;;;;;;2.70;2.33;;;10.40;85.80;;;;;;5010545;28;20487;-49
2022/06/01 01:17:06;;;;;;;11.30;3.30;;;10.40;86.40;;;;;;5007645;28;20567;-49
2022/06/01 01:19:38;;;;;;;3.07;2.80;;;10.50;86.40;;;;;;5009506;28;20480;-49
2022/06/01 01:22:18;;;;;;;4.30;3.00;;;10.60;85.80;;;;;;5008140;28;20492;-50
2022/06/01 01:25:12;;;;;;;4.87;2.50;;;10.60;86.00;;;;;;5020453;28;20831;-49
2022/06/01 01:27:39;;;;;;;4.23;3.10;;;10.60;86.50;;;;;;5000342;28;20480;-49
2022/06/01 01:30:24;;;;;;;3.70;3.10;;;10.70;86.20;;;;;;5002542;28;20479;-50
2022/06/01 01:32:51;;;;;;;13.53;4.17;;;10.80;85.40;;;;;;5005496;28;20497;-49
2022/06/01 01:35:19;;;;;;;3.80;3.50;;;10.80;84.80;;;;;;5001259;28;20478;-49
2022/06/01 01:37:48;;;;;;;3.60;3.30;;;10.90;84.50;;;;;;5005789;28;20496;-49
2022/06/01 01:40:16;;;;;;;4.47;2.90;;;10.90;85.30;;;;;;5000992;28;20492;-49
2022/06/01 01:42:43;;;;;;;3.90;3.60;;;10.90;85.50;;;;;;5010457;28;20486;-49
2022/06/01 01:45:19;;;;;;;3.60;3.10;;;10.80;84.60;;;;;;5001395;28;20930;-50
2022/06/01 01:47:47;;;;;;;3.87;3.57;;;10.80;84.50;;;;;;5017396;28;20932;-49
2022/06/01 01:50:14;;;;;;;3.80;3.20;;;10.70;84.60;;;;;;4999134;28;20542;-50
2022/06/01 01:52:41;;;;;;;19.43;4.63;;;10.60;85.70;;;;;;5015593;28;21079;-49
2022/06/01 01:55:15;;;;;;;5.60;4.07;;;10.50;85.70;;;;;;5011187;28;20874;-49
2022/06/01 01:57:51;;;;;;;8.27;5.93;;;10.40;86.00;;;;;;5003014;28;20847;-50
2022/06/01 02:00:22;;;;;;;3.30;3.00;;;10.30;86.70;;;;;;5013543;28;20483;-49
2022/06/01 02:02:53;;;;;;;6.13;5.60;;;10.40;86.80;;;;;;4995716;28;20488;-50
2022/06/01 02:08:19;;;;;;;6.53;5.93;;;10.50;85.60;;;;;;5006663;28;20476;-49
2022/06/01 02:13:34;;;;;;;4.77;4.37;;;10.60;86.20;;;;;;4991953;28;21020;-49
2022/06/01 02:16:02;;;;;;;4.77;4.37;;;10.60;86.60;;;;;;4986197;28;20490;-49
2022/06/01 02:18:32;;;;;;;5.97;5.40;;;10.50;86.20;;;;;;4983890;28;20484;-49
2022/06/01 02:21:02;;;;;;;4.80;3.83;;;10.40;87.00;;;;;;4987927;28;21019;-49
2022/06/01 02:23:31;;;;;;;3.83;3.40;;;10.30;86.90;;;;;;4986297;28;20476;-49
2022/06/01 02:26:00;;;;;;;6.30;5.40;;;10.30;87.10;;;;;;4988136;28;20575;-50
2022/06/01 02:28:28;;;;;;;14.63;5.20;;;10.10;87.40;;;;;;4987579;28;20489;-54
2022/06/01 02:30:57;;;;;;;4.67;4.27;;;10.10;87.80;;;;;;4988717;28;20476;-49
2022/06/01 02:33:28;;;;;;;4.53;4.13;;;10.10;87.70;;;;;;4979584;28;21214;-50
2022/06/01 02:35:58;;;;;;;6.53;4.90;;;10.20;88.40;;;;;;4990348;28;20488;-50
2022/06/01 02:38:30;;;;;;;5.37;4.93;;;10.10;88.40;;;;;;4997181;28;20598;-50
2022/06/01 02:40:56;;;;;;;6.33;5.70;;;10.10;88.10;;;;;;4984917;28;20473;-49
2022/06/01 02:43:23;;;;;;;7.10;4.80;;;10.20;88.00;;;;;;4988033;28;20488;-49
2022/06/01 02:45:50;;;;;;;5.37;4.87;;;10.20;88.00;;;;;;4987503;28;20480;-49
2022/06/01 02:48:18;;;;;;;17.90;6.57;;;10.20;88.00;;;;;;4986504;28;21001;-49
2022/06/01 02:50:45;;;;;;;5.20;4.70;;;10.30;87.30;;;;;;4986939;28;20488;-49
2022/06/01 02:53:12;;;;;;;6.30;5.70;;;10.30;86.80;;;;;;4982618;28;20510;-49
2022/06/01 02:55:39;;;;;;;3.90;3.47;;;10.30;86.90;;;;;;5003033;28;20481;-49
2022/06/01 02:58:06;;;;;;;6.97;4.50;;;10.30;87.00;;;;;;4987315;28;20489;-53
2022/06/01 03:00:35;;;;;;;6.00;5.40;;;10.40;86.30;;;;;;4985237;28;20481;-49
2022/06/01 03:03:05;;;;;;;8.97;5.00;;;10.40;86.20;;;;;;4985948;28;20467;-49
2022/06/01 03:05:37;;;;;;;4.60;4.20;;;10.30;86.20;;;;;;4984669;28;20492;-48
2022/06/01 03:08:04;;;;;;;5.60;4.77;;;10.30;86.70;;;;;;4984718;28;20488;-50
2022/06/01 03:10:31;;;;;;;9.40;3.70;;;10.30;86.70;;;;;;4996831;28;20515;-49
2022/06/01 03:12:58;;;;;;;5.23;4.83;;;10.30;86.50;;;;;;5003973;28;20596;-50
2022/06/01 03:15:26;;;;;;;4.10;3.70;;;10.20;86.70;;;;;;4995942;28;20500;-49
2022/06/01 03:17:54;;;;;;;4.50;3.10;;;10.20;86.30;;;;;;4926482;28;20491;-49
2022/06/01 03:20:23;;;;;;;7.20;5.80;;;10.20;86.50;;;;;;4971914;28;21078;-50
2022/06/01 03:22:51;;;;;;;5.13;4.40;;;10.30;86.50;;;;;;4940645;28;20928;-50
2022/06/01 03:25:22;;;;;;;6.17;4.53;;;10.20;86.60;;;;;;4980007;28;20693;-50
2022/06/01 03:27:49;;;;;;;7.10;5.57;;;10.30;86.80;;;;;;4993211;28;20480;-49
2022/06/01 03:30:16;;;;;;;23.40;6.20;;;10.40;85.80;;;;;;5017228;28;20853;-49
2022/06/01 03:32:44;;;;;;;5.70;4.30;;;10.40;85.80;;;;;;4964944;28;20590;-49
2022/06/01 03:35:11;;;;;;;5.03;4.23;;;10.40;85.20;;;;;;4968902;28;20597;-49
2022/06/01 03:37:38;;;;;;;3.97;3.60;;;10.30;85.40;;;;;;4997492;28;21020;-49
2022/06/01 03:40:08;;;;;;;7.27;5.90;;;10.30;85.70;;;;;;4958040;28;20504;-50
2022/06/01 03:42:35;;;;;;;5.33;4.83;;;10.30;85.10;;;;;;4989816;28;20549;-49
2022/06/01 03:47:48;;;;;;;5.20;4.33;;;10.00;85.60;;;;;;4950221;28;20519;-50
2022/06/01 03:50:16;;;;;;;9.40;7.30;;;9.90;86.70;;;;;;4950961;28;20525;-49
2022/06/01 03:52:43;;;;;;;6.20;5.60;;;9.90;86.90;;;;;;4942850;28;20622;-49
2022/06/01 03:55:14;;;;;;;11.50;8.53;;;9.90;88.20;;;;;;4985714;28;20497;-49
2022/06/01 03:57:42;;;;;;;16.73;4.33;;;9.90;88.40;;;;;;4939931;28;21365;-53
2022/06/01 04:00:12;;;;;;;12.80;8.83;;;10.00;86.60;;;;;;4989472;28;20711;-49
2022/06/01 04:02:39;;;;;;;6.37;5.40;;;10.10;86.50;;;;;;4949059;28;21124;-49
2022/06/01 04:05:07;;;;;;;22.33;9.43;;;10.20;86.00;;;;;;4981739;28;21454;-49
2022/06/01 04:07:34;;;;;;;12.90;8.50;;;10.20;85.30;;;;;;4984804;28;20515;-49
2022/06/01 04:10:01;;;;;;;9.53;7.13;;;10.00;85.50;;;;;;4983529;28;20493;-49
2022/06/01 04:12:29;;;;;;;13.23;5.00;;;10.00;85.20;;;;;;4950778;28;21325;-50
2022/06/01 04:14:56;;;;;;;10.73;6.57;;;10.00;85.20;;;;;;4976173;28;21682;-49
2022/06/01 04:17:23;;;;;;;8.80;7.23;;;10.00;85.50;;;;;;4982375;28;20854;-49
2022/06/01 04:19:49;;;;;;;17.60;6.40;;;9.90;87.00;;;;;;4981540;28;20584;-49
2022/06/01 04:22:17;;;;;;;9.97;7.40;;;9.90;87.00;;;;;;4991898;28;20494;-49
2022/06/01 04:24:43;;;;;;;7.93;6.50;;;9.90;86.80;;;;;;4991059;28;20501;-49
2022/06/01 04:27:10;;;;;;;23.57;10.43;;;9.80;87.10;;;;;;4997308;28;21231;-49
2022/06/01 04:29:39;;;;;;;7.90;5.77;;;9.80;87.80;;;;;;4990081;28;20484;-49
2022/06/01 04:32:10;;;;;;;15.03;9.07;;;9.70;87.90;;;;;;4989202;28;20476;-49
2022/06/01 04:34:37;;;;;;;9.83;5.63;;;9.80;87.90;;;;;;4989796;28;20480;-49
2022/06/01 04:37:04;;;;;;;12.13;8.10;;;9.80;88.80;;;;;;4989942;28;20488;-50
2022/06/01 04:39:31;;;;;;;15.73;5.27;;;9.80;89.80;;;;;;4989600;28;20499;-50
2022/06/01 04:41:58;;;;;;;17.77;9.13;;;9.80;90.10;;;;;;4990298;28;20483;-50
2022/06/01 04:44:25;;;;;;;10.77;7.80;;;9.80;90.10;;;;;;4990712;28;21008;-50
2022/06/01 04:46:53;;;;;;;9.33;5.63;;;9.80;90.40;;;;;;4990362;28;20480;-50
2022/06/01 04:49:19;;;;;;;10.43;7.57;;;9.90;90.80;;;;;;4987916;28;20479;-50
2022/06/01 04:51:46;;;;;;;7.23;5.93;;;10.10;90.20;;;;;;4989684;28;20488;-50
2022/06/01 04:54:13;;;;;;;20.70;9.70;;;10.40;90.20;;;;;;4990508;28;20487;-50
2022/06/01 04:56:39;;;;;;;6.93;6.20;;;10.60;89.90;;;;;;4991710;28;20481;-51
2022/06/01 04:59:06;;;;;;;11.00;8.40;;;10.60;88.70;;;;;;4986469;28;20489;-50
2022/06/01 05:01:33;;;;;;;6.47;5.23;;;10.80;88.80;;;;;;4988121;28;20481;-50
2022/06/01 05:04:01;;;;;;;7.70;6.50;;;10.80;88.80;;;;;;4990313;28;20490;-50
2022/06/01 05:06:27;;;;;;;8.93;6.10;;;10.80;89.60;;;;;;4984445;28;21719;-50
2022/06/01 05:08:54;;;;;;;7.00;5.60;;;10.90;90.10;;;;;;5003678;28;20978;-50
2022/06/01 05:11:21;;;;;;;11.83;7.70;;;10.90;90.20;;;;;;4985868;28;20489;-51
2022/06/01 05:13:48;;;;;;;9.90;7.30;;;11.00;90.50;;;;;;4991239;28;20998;-51
2022/06/01 05:16:15;;;;;;;12.33;8.77;;;11.10;90.20;;;;;;4989176;28;20501;-51
2022/06/01 05:18:41;;;;;;;8.73;7.73;;;11.20;90.00;;;;;;4988519;28;20901;-50
2022/06/01 05:21:10;;;;;;;14.50;10.03;;;11.20;90.00;;;;;;4985522;28;20485;-50
2022/06/01 05:23:37;;;;;;;7.60;5.50;;;11.30;90.20;;;;;;4988101;28;20474;-51
2022/06/01 05:26:04;;;;;;;7.77;6.40;;;11.40;90.00;;;;;;4990153;28;20486;-52
2022/06/01 05:28:33;;;;;;;5.80;4.97;;;11.50;90.40;;;;;;4988979;28;20482;-50
2022/06/01 05:31:00;;;;;;;9.10;6.53;;;11.70;90.10;;;;;;4988860;28;20554;-50
2022/06/01 05:33:27;;;;;;;7.30;5.73;;;11.70;90.60;;;;;;4988561;28;20497;-50
2022/06/01 05:35:54;;;;;;;8.50;7.07;;;11.80;90.30;;;;;;4990175;28;20489;-50
2022/06/01 05:38:22;;;;;;;15.70;8.60;;;12.00;90.50;;;;;;4985869;28;20480;-50
2022/06/01 05:40:49;;;;;;;9.30;7.33;;;12.00;90.90;;;;;;4999057;28;20500;-50
2022/06/01 05:43:17;;;;;;;14.60;10.97;;;12.10;91.10;;;;;;4987730;28;20822;-50
2022/06/01 05:45:45;;;;;;;9.00;5.80;;;12.20;90.60;;;;;;5000094;28;20907;-50
2022/06/01 05:48:13;;;;;;;9.10;8.20;;;12.30;90.30;;;;;;4998718;28;20968;-50
2022/06/01 05:50:40;;;;;;;6.30;5.57;;;12.40;90.40;;;;;;4991398;28;21341;-51
2022/06/01 05:53:07;;;;;;;32.53;6.47;;;12.70;91.00;;;;;;4988828;28;20492;-51
2022/06/01 05:55:36;;;;;;;6.13;5.53;;;12.80;90.40;;;;;;4986752;28;20477;-51
2022/06/01 05:58:02;;;;;;;7.10;5.70;;;12.90;90.00;;;;;;4980166;28;20563;-50
2022/06/01 06:00:29;;;;;;;13.43;5.00;;;13.10;90.30;;;;;;4988102;28;20638;-51
2022/06/01 06:02:56;;;;;;;6.20;5.63;;;13.30;90.30;;;;;;4987543;28;20485;-51
2022/06/01 06:08:07;;;;;;;7.30;6.50;;;13.70;90.30;;;;;;4980058;28;20515;-52
2022/06/01 06:10:36;;;;;;;5.83;4.83;;;13.90;89.90;;;;;;5001788;28;20501;-52
2022/06/01 06:13:04;;;;;;;5.63;5.13;;;14.10;88.80;;;;;;4985823;28;20704;-52
2022/06/01 06:15:30;;;;;;;5.37;4.70;;;14.20;87.40;;;;;;4987025;28;21337;-52
2022/06/01 06:17:57;;;;;;;5.13;4.63;;;14.40;86.00;;;;;;4988926;28;20485;-52
2022/06/01 06:20:24;;;;;;;5.37;3.93;;;14.70;85.50;;;;;;4992477;28;20536;-52
2022/06/01 06:22:50;;;;;;;6.00;5.40;;;14.80;83.40;;;;;;4987265;28;20529;-52
2022/06/01 06:25:17;;;;;;;8.93;6.40;;;14.90;83.00;;;;;;4987920;28;20487;-52
2022/06/01 06:27:45;;;;;;;4.60;4.17;;;15.20;84.30;;;;;;4990164;28;20513;-53
2022/06/01 06:30:15;;;;;;;7.97;6.50;;;15.30;82.60;;;;;;4985548;28;20489;-53
2022/06/01 06:32:41;;;;;;;10.97;5.37;;;15.40;83.10;;;;;;4986547;28;20484;-54
2022/06/01 06:35:09;;;;;;;8.80;5.13;;;15.50;83.20;;;;;;4988698;28;20974;-53
2022/06/01 06:37:36;;;;;;;4.63;4.23;;;15.70;82.50;;;;;;4986394;28;20565;-53
2022/06/01 06:40:03;;;;;;;5.73;5.23;;;15.80;84.50;;;;;;4985407;28;20491;-53
2022/06/01 06:42:29;;;;;;;6.97;4.57;;;16.10;82.70;;;;;;4978050;28;21019;-53
2022/06/01 06:44:58;;;;;;;4.73;4.33;;;16.20;82.40;;;;;;5004101;28;20485;-53
2022/06/01 06:47:25;;;;;;;5.30;4.80;;;16.40;83.00;;;;;;4993794;28;21060;-53
2022/06/01 06:49:51;;;;;;;9.30;3.93;;;16.70;82.60;;;;;;4990783;28;20890;-53
2022/06/01 06:52:18;;;;;;;6.13;5.63;;;17.00;81.70;;;;;;4988636;28;20998;-54
2022/06/01 06:54:45;;;;;;;5.20;4.80;;;17.30;79.60;;;;;;4987981;28;21374;-54
2022/06/01 06:57:11;;;;;;;7.77;2.70;;;17.70;75.30;;;;;;4987151;28;20482;-54
2022/06/01 06:59:38;;;;;;;3.43;2.90;;;18.10;75.30;;;;;;4987184;28;20488;-54
2022/06/01 07:02:06;;;;;;;4.00;3.20;;;18.40;71.20;;;;;;5000841;28;20492;-53
2022/06/01 07:04:35;;;;;;;10.90;4.30;;;18.80;70.40;;;;;;4987428;28;20485;-54
2022/06/01 07:07:02;;;;;;;4.80;3.37;;;19.00;69.30;;;;;;4986571;28;20885;-54
2022/06/01 07:09:28;;;;;;;3.57;3.27;;;19.20;68.40;;;;;;4983110;28;20493;-54
2022/06/01 07:11:55;;;;;;;8.10;2.70;;;19.50;67.50;;;;;;5017794;28;20487;-53
2022/06/01 07:14:22;;;;;;;3.17;2.97;;;19.50;67.30;;;;;;4997146;28;20915;-54
2022/06/01 07:16:48;;;;;;;2.63;2.43;;;19.60;67.50;;;;;;4991764;28;20478;-55
2022/06/01 07:19:16;;;;;;;7.20;3.67;;;19.90;68.40;;;;;;4984510;28;20489;-55
2022/06/01 07:21:43;;;;;;;4.40;4.10;;;20.20;67.70;;;;;;4964491;28;21453;-55
2022/06/01 07:24:10;;;;;;;4.23;3.93;;;20.40;68.10;;;;;;5005663;28;20476;-56
2022/06/01 07:26:40;;;;;;;7.97;2.73;;;20.60;66.90;;;;;;4999221;28;20480;-57
2022/06/01 07:29:08;;;;;;;4.60;4.20;;;20.80;67.70;;;;;;5027822;28;20491;-56
2022/06/01 07:31:35;;;;;;;5.07;2.67;;;21.00;66.80;;;;;;4983942;28;20485;-56
2022/06/01 07:34:01;;;;;;;10.03;4.13;;;21.20;67.20;;;;;;5022093;28;20479;-57
2022/06/01 07:36:30;;;;;;;5.80;3.27;;;21.40;66.70;;;;;;4988780;28;20490;-58
2022/06/01 07:44:36;;;;;;;8.07;4.30;;;21.90;67.90;;;;;;4937904;28;20898;-56
2022/06/01 07:47:04;;;;;;;4.33;4.00;;;22.00;66.00;;;;;;4990066;28;20489;-57
2022/06/01 07:49:31;;;;;;;4.00;3.57;;;;;;;;;;4991421;28;20474;-56
2022/06/01 07:51:59;;;;;;;4.53;3.60;;;21.60;65.60;;;;;;4992844;28;20967;-56
2022/06/01 07:54:26;;;;;;;12.30;3.83;;;21.60;67.00;;;;;;4991499;28;21065;-57
2022/06/01 07:56:53;;;;;;;4.23;3.93;;;21.50;65.10;;;;;;5006525;28;20488;-56
2022/06/01 07:59:19;;;;;;;4.33;4.03;;;21.50;65.50;;;;;;4990470;28;20492;-56
2022/06/01 08:01:46;;;;;;;3.43;3.13;;;21.40;65.20;;;;;;4987004;28;20495;-56
2022/06/01 08:04:14;;;;;;;5.33;4.83;;;;;;;;;;4985467;28;20491;-57
2022/06/01 08:06:40;;;;;;;4.40;3.87;;;21.40;63.10;;;;;;4991840;28;20487;-57
2022/06/01 08:09:09;;;;;;;6.00;5.37;;;21.40;63.00;;;;;;4984979;28;20920;-57
2022/06/01 08:14:20;;;;;;;3.83;3.43;;;21.40;62.90;;;;;;4984965;28;21354;-57
2022/06/01 08:16:47;;;;;;;5.30;3.70;;;21.60;64.30;;;;;;4976950;28;20833;-57
2022/06/01 08:19:16;;;;;;;10.73;4.87;;;21.60;63.10;;;;;;5011639;28;21024;-57
2022/06/01 08:21:43;;;;;;;3.80;3.50;;;21.80;66.70;;;;;;4996598;28;20508;-57
2022/06/01 08:24:11;;;;;;;6.17;5.47;;;22.20;65.20;;;;;;4990146;28;20932;-58
2022/06/01 08:26:38;;;;;;;5.00;3.50;;;22.40;63.90;;;;;;4989554;28;20487;-58
2022/06/01 08:29:05;;;;;;;5.77;5.20;;;22.60;61.90;;;;;;4987103;28;20502;-59
2022/06/01 08:31:34;;;;;;;4.13;2.23;;;22.80;64.90;;;;;;4998640;28;20934;-58
2022/06/01 08:34:03;;;;;;;4.63;4.10;;;22.90;61.60;;;;;;4999562;28;20476;-59
2022/06/01 08:36:30;;;;;;;2.80;2.60;;;22.90;61.90;;;;;;4989185;28;20481;-58
2022/06/01 08:38:57;;;;;;;8.60;4.37;;;22.60;62.60;;;;;;5008006;28;20721;-58
2022/06/01 08:41:32;;;;;;;3.80;2.93;;;22.20;58.40;;;;;;5029647;28;20471;-57
2022/06/01 08:44:01;;;;;;;6.70;4.73;;;22.00;62.30;;;;;;4993408;28;20484;-58
2022/06/01 08:46:29;;;;;;;8.30;3.40;;;22.10;61.30;;;;;;4996869;28;20491;-57
2022/06/01 08:49:00;;;;;;;7.67;4.77;;;22.10;63.00;;;;;;5002065;28;20538;-58
2022/06/01 08:51:31;;;;;;;4.70;4.00;;;22.40;62.20;;;;;;5009746;28;21155;-58
2022/06/01 08:53:59;;;;;;;6.70;5.70;;;22.50;63.00;;;;;;5018638;28;20482;-59
2022/06/01 08:56:34;;;;;;;4.70;4.17;;;22.50;61.70;;;;;;5010288;28;20484;-58
2022/06/01 08:59:09;;;;;;;9.80;4.40;;;22.50;61.40;;;;;;5008287;28;20492;-58
2022/06/01 09:01:43;;;;;;;6.53;4.07;;;22.60;62.70;;;;;;5011233;28;20498;-58
2022/06/01 09:04:22;;;;;;;22.30;7.40;;;22.60;62.10;;;;;;4993681;28;20491;-59
2022/06/01 09:06:52;;;;;;;6.10;4.73;;;22.60;61.30;;;;;;4981266;28;20469;-58
2022/06/01 09:09:27;;;;;;;11.90;7.83;;;22.50;62.00;;;;;;4985318;28;20496;-60
2022/06/01 09:11:55;;;;;;;6.80;4.60;;;22.40;61.50;;;;;;4989925;28;20484;-59
2022/06/01 09:14:26;;;;;;;9.70;4.87;;;22.30;61.30;;;;;;4994865;28;20484;-58
2022/06/01 09:16:56;;;;;;;13.23;4.90;;;22.20;62.60;;;;;;5005849;28;20500;-60
2022/06/01 09:19:26;;;;;;;4.77;4.30;;;22.20;63.80;;;;;;4994480;28;20586;-59
2022/06/01 09:24:44;;;;;;;4.83;3.73;;;22.70;63.40;;;;;;4978074;28;20550;-59
2022/06/01 09:27:14;;;;;;;7.90;6.50;;;23.10;63.80;;;;;;4987830;28;20512;-59
2022/06/01 09:29:46;;;;;;;7.97;4.90;;;23.40;62.90;;;;;;4988993;28;20976;-60
2022/06/01 09:32:25;;;;;;;9.13;7.70;;;;;;;;;;4989073;28;20659;-59
2022/06/01 09:34:52;;;;;;;8.40;5.10;;;23.30;59.10;;;;;;4990445;28;20999;-59
2022/06/01 09:37:23;;;;;;;11.67;7.23;;;23.40;62.60;;;;;;4986146;28;20485;-59
2022/06/01 09:39:53;;;;;;;7.73;4.40;;;23.50;61.30;;;;;;4984976;28;20490;-61
2022/06/01 09:42:26;;;;;;;5.37;4.83;;;23.60;58.70;;;;;;4990858;28;20540;-61
2022/06/01 09:44:56;;;;;;;5.73;4.20;;;23.40;59.30;;;;;;4988331;28;20814;-58
2022/06/01 09:47:34;;;;;;;12.47;3.97;;;22.80;59.20;;;;;;4987115;28;20485;-60
2022/06/01 09:50:04;;;;;;;5.30;4.10;;;22.80;62.50;;;;;;4986373;28;20819;-58
2022/06/01 09:52:34;;;;;;;30.27;4.07;;;22.80;60.00;;;;;;4994405;28;20489;-58
2022/06/01 09:55:10;;;;;;;7.67;4.80;;;22.60;61.30;;;;;;4999337;28;20481;-59
2022/06/01 09:57:38;;;;;;;3.73;3.37;;;22.90;62.70;;;;;;4988792;28;21116;-57
2022/06/01 10:06:13;;;;;;;4.27;3.87;;;23.40;61.90;;;;;;4979381;28;20559;-63
2022/06/01 10:08:43;;;;;;;5.43;4.93;;;23.60;60.70;;;;;;4986406;28;20493;-59
2022/06/01 10:11:27;;;;;;;7.40;5.87;;;23.80;60.30;;;;;;4985192;28;21168;-59
2022/06/01 10:14:04;;;;;;;4.23;2.63;;;23.80;60.00;;;;;;4978937;28;20519;-58
2022/06/01 10:16:39;;;;;;;2.97;2.10;;;23.90;60.60;;;;;;4986800;28;20481;-58
2022/06/01 10:19:10;;;;;;;4.50;3.77;;;23.90;60.80;;;;;;4985448;28;20489;-58
2022/06/01 10:21:48;;;;;;;2.83;2.63;;;23.90;58.90;;;;;;4987469;28;20581;-56
2022/06/01 10:24:20;;;;;;;6.30;4.80;;;23.40;57.80;;;;;;4983893;28;21123;-57
2022/06/01 10:26:52;;;;;;;5.80;3.57;;;23.60;60.40;;;;;;4988125;28;21010;-60
2022/06/01 10:29:28;;;;;;;11.30;3.47;;;23.60;58.50;;;;;;4986188;28;21026;-59
2022/06/01 10:31:59;;;;;;;3.40;3.20;;;23.40;57.90;;;;;;4988775;28;20469;-57
2022/06/01 10:34:32;;;;;;;5.50;3.17;;;23.10;59.60;;;;;;4988672;28;20473;-57
2022/06/01 10:37:04;;;;;;;4.50;3.40;;;23.20;61.20;;;;;;4989189;28;21059;-59
2022/06/01 10:39:35;;;;;;;2.40;2.20;;;23.40;60.10;;;;;;4984118;28;20520;-57
2022/06/01 10:42:05;;;;;;;9.73;2.90;;;23.60;61.90;;;;;;4988089;28;20941;-55
2022/06/01 10:44:42;;;;;;;3.23;2.70;;;23.70;59.20;;;;;;4987699;28;20478;-59
2022/06/01 10:47:15;;;;;;;6.47;3.40;;;23.40;58.40;;;;;;4985772;28;20485;-56
2022/06/01 10:49:51;;;;;;;7.90;3.93;;;23.40;59.00;;;;;;4986073;28;20477;-61
2022/06/01 10:52:29;;;;;;;5.07;4.67;;;23.50;60.70;;;;;;4987957;28;20991;-61
2022/06/01 10:55:06;;;;;;;4.50;3.10;;;23.70;60.50;;;;;;4978859;28;20560;-60
2022/06/01 10:57:37;;;;;;;5.27;2.80;;;24.00;60.40;;;;;;4986708;28;20489;-65
2022/06/01 11:00:07;;;;;;;5.33;4.30;;;24.00;58.70;;;;;;4978296;28;20726;-58
2022/06/01 11:03:14;;;;;;;4.00;2.90;;;23.90;58.50;;;;;;4984362;28;20490;-57
2022/06/01 11:05:46;;;;;;;3.80;3.50;;;23.70;61.10;;;;;;4968591;28;20481;-58
2022/06/01 11:08:29;;;;;;;15.60;5.13;;;23.50;57.80;;;;;;4984901;28;20490;-60
2022/06/01 11:11:04;;;;;;;6.00;4.80;;;23.70;58.90;;;;;;4977317;28;20903;-58
2022/06/01 11:13:53;;;;;;;14.23;2.70;;;23.80;58.70;;;;;;4999443;28;20476;-63
2022/06/01 11:16:34;;;;;;;4.93;3.90;;;24.00;59.70;;;;;;4992609;28;20485;-59
2022/06/01 11:19:17;;;;;;;4.03;3.73;;;24.10;58.40;;;;;;4980851;28;21102;-59
2022/06/01 11:21:50;;;;;;;15.63;3.70;;;24.10;58.30;;;;;;4982759;28;20484;-57
2022/06/01 11:24:46;;;;;;;5.33;5.00;;;24.20;58.00;;;;;;4984078;28;20478;-60
2022/06/01 11:27:24;;;;;;;7.60;5.30;;;24.00;57.40;;;;;;4979264;28;20983;-57
2022/06/01 11:30:03;;;;;;;4.63;2.97;;;24.00;57.80;;;;;;4983518;28;20486;-58
2022/06/01 11:32:38;;;;;;;3.83;3.40;;;24.00;57.70;;;;;;4979551;28;20492;-60
2022/06/01 11:35:13;;;;;;;4.73;4.10;;;23.70;57.60;;;;;;4998415;28;20480;-57
2022/06/01 11:37:45;;;;;;;10.27;3.33;;;23.60;57.00;;;;;;5001367;28;21082;-61
2022/06/01 11:40:18;;;;;;;7.00;5.93;;;23.80;58.80;;;;;;4973255;28;20661;-65
2022/06/01 11:42:49;;;;;;;5.93;4.50;;;23.90;57.60;;;;;;5010094;28;20532;-59
2022/06/01 11:45:20;;;;;;;7.23;6.20;;;23.90;56.90;;;;;;4993333;28;20574;-66
2022/06/01 11:47:53;;;;;;;4.10;3.80;;;23.90;59.00;;;;;;4992505;28;20515;-57
2022/06/01 11:50:25;;;;;;;8.00;7.10;;;23.90;57.80;;;;;;4977422;28;20896;-58
2022/06/01 11:53:00;;;;;;;4.40;4.00;;;23.90;56.10;;;;;;4986890;28;20486;-60
2022/06/01 11:55:46;;;;;;;7.63;3.03;;;23.90;55.50;;;;;;4992007;28;20491;-58
2022/06/01 11:58:15;;;;;;;7.03;6.33;;;23.90;57.10;;;;;;4985546;28;20488;-59
2022/06/01 12:00:51;;;;;;;10.13;3.40;;;24.10;57.60;;;;;;4978186;28;20976;-58
2022/06/01 12:03:40;;;;;;;5.13;4.70;;;24.10;56.60;;;;;;4985144;28;20473;-60
2022/06/01 12:06:11;;;;;;;3.23;2.93;;;24.20;56.60;;;;;;5013639;28;20575;-57
2022/06/01 12:08:43;;;;;;;4.60;4.20;;;24.20;56.40;;;;;;4993586;28;20818;-66
2022/06/01 12:11:15;;;;;;;7.93;2.90;;;24.10;56.80;;;;;;4993670;28;21204;-59
2022/06/01 12:13:54;;;;;;;2.83;2.57;;;24.30;56.80;;;;;;4981618;28;21130;-56
2022/06/01 12:16:24;;;;;;;4.13;2.70;;;24.30;55.80;;;;;;4998449;28;20481;-60
2022/06/01 12:19:02;;;;;;;3.40;3.20;;;24.40;55.30;;;;;;4986422;28;21007;-60
2022/06/01 12:21:34;;;;;;;4.07;2.33;;;24.30;54.90;;;;;;4988004;28;20481;-58
2022/06/01 12:30:04;;;;;;;27.97;2.73;;;24.40;56.90;;;;;;4983910;28;21306;-58
2022/06/01 12:32:52;;;;;;;2.63;1.90;;;24.40;55.80;;;;;;4988525;28;20481;-59
2022/06/01 12:35:21;;;;;;;10.10;2.90;;;24.70;56.90;;;;;;4983616;28;20768;-61
2022/06/01 12:37:57;;;;;;;2.13;1.63;;;24.60;54.90;;;;;;4996730;28;20504;-64
2022/06/01 12:40:25;;;;;;;2.40;2.20;;;24.70;55.10;;;;;;4998657;28;21093;-64
2022/06/01 12:42:55;;;;;;;2.17;1.97;;;24.80;54.50;;;;;;5006479;28;20479;-60
2022/06/01 12:45:25;;;;;;;4.87;3.30;;;24.80;54.80;;;;;;5030716;28;20627;-58
2022/06/01 12:47:57;;;;;;;20.13;2.63;;;24.90;54.10;;;;;;5010577;28;20465;-62
2022/06/01 12:50:28;;;;;;;2.53;2.33;;;24.90;55.40;;;;;;5008838;28;20472;-63
2022/06/01 12:53:13;;;;;;;5.30;2.27;;;24.90;55.00;;;;;;5009891;28;20543;-60
2022/06/01 12:55:40;;;;;;;2.63;2.43;;;24.90;56.60;;;;;;5012530;28;20860;-60
2022/06/01 12:58:17;;;;;;;3.80;3.50;;;24.90;57.30;;;;;;5019593;28;20489;-60
2022/06/01 13:00:50;;;;;;;2.27;2.07;;;25.00;55.40;;;;;;5007407;28;20480;-59
2022/06/01 13:03:19;;;;;;;3.40;3.10;;;25.20;57.40;;;;;;5003004;28;20927;-60
2022/06/01 13:05:49;;;;;;;14.00;2.87;;;25.00;54.90;;;;;;5008634;28;21613;-55
2022/06/01 13:08:20;;;;;;;4.60;4.30;;;25.00;55.50;;;;;;5007274;28;20554;-58
2022/06/01 13:10:46;;;;;;;3.03;2.83;;;25.20;56.20;;;;;;5008060;28;20503;-63
2022/06/01 13:13:16;;;;;;;9.80;5.07;;;25.30;54.20;;;;;;5009518;28;20485;-60
2022/06/01 13:15:53;;;;;;;3.40;3.10;;;25.20;52.50;;;;;;5017017;28;20491;-58
2022/06/01 13:18:22;;;;;;;16.40;5.10;;;25.20;53.70;;;;;;5017271;28;20564;-59
2022/06/01 13:20:56;;;;;;;4.00;3.60;;;25.00;53.60;;;;;;5005315;28;20473;-61
2022/06/01 13:23:28;;;;;;;4.53;4.10;;;24.90;54.40;;;;;;5008470;28;20479;-60
2022/06/01 13:25:56;;;;;;;4.27;3.87;;;25.00;54.70;;;;;;5025603;28;20481;-58
2022/06/01 13:28:24;;;;;;;5.47;4.80;;;24.80;55.00;;;;;;5008211;28;20472;-61
2022/06/01 13:30:51;;;;;;;3.53;2.83;;;24.90;55.10;;;;;;5009100;28;20481;-61
2022/06/01 13:33:25;;;;;;;2.83;2.53;;;24.90;55.00;;;;;;5003483;28;20490;-64